Terminal Aerodrome Forecast
Issued by NWS Melbourne, FL

Current Version | Previous Version | Text Only | Print | Product List | Glossary On
Versions: 1 2 3 4 5 6 7 8 9 10 11 12 13 14 15 16
801
FTUS42 KMLB 260520
TAFDAB
TAF
KDAB 260520Z 2606/2706 21003KT P6SM SCT050
     FM261700 24007KT P6SM SCT025 SCT300
     FM262000 12008KT P6SM SCT050 SCT300
     FM270100 19004KT P6SM FEW050 SCT300=

USA.gov is the U.S. government's official web portal to all federal, state and local government web resources and services.